Terminal Aerodrome Forecast
Issued by NWS Cleveland, OH

Home | Current Version | Previous Version | Graphics & Text | Print | Product List | Glossary On
Versions: 1 2 3 4 5 6 7 8 9 10 11 12 13 14 15 16 17 18
000
FTUS41 KCLE 032332
TAFTOL
TAF
KTOL 032332Z 0400/0424 26004KT P6SM OVC035
     FM041000 VRB03KT P6SM SCT040 OVC150
     FM042200 12004KT P6SM -RA OVC070=

USA.gov is the U.S. government's official web portal to all federal, state and local government web resources and services.